KDSM/DSM METAR and TAF weather

Enter ICAO airport designator
Station Type Date Time Source
KDSM METAR 2019/08/19 06:54 UTC NOAA

KDSM 190654Z 00000KT 10SM BKN043 22/19 A2993 RMK AO2 SLP125 T02220189


Station Type Date Time Source
KDSM Decoded METAR 2019/08/19 06:54 UTC NOAA

Station name not available
Aug 19, 2019 - 02:54 AM EDT / 2019.08.19 0654 UTC
Wind: Calm:0
Visibility: 10 mile(s):0
Sky conditions: mostly cloudy
Temperature: 72.0 F (22.2 C)
Dew Point: 66.0 F (18.9 C)
Relative Humidity: 81%
Pressure (altimeter): 29.93 in. Hg (1013 hPa)
ob: KDSM 190654Z 00000KT 10SM BKN043 22/19 A2993 RMK AO2 SLP125 T02220189
cycle: 7

Station Type Date Time Source
KDSM TAF 2019/08/19 06:22 UTC NOAA

TAF KDSM 190520Z 1906/2006 VRB03KT P6SM SCT050 BKN080
FM191600 11006KT P6SM FEW040

Example: see airport list